createdAt,value
2023-02-17T00:00:00.235Z,14.8
2023-02-17T00:05:00.222Z,19.0
2023-02-17T00:10:00.243Z,16.5
2023-02-17T00:15:00.227Z,16.6
2023-02-17T00:20:00.243Z,18.1
2023-02-17T00:25:00.221Z,17.3
2023-02-17T00:30:00.297Z,21.3
2023-02-17T00:35:00.235Z,19.1
2023-02-17T00:40:00.223Z,20.8
2023-02-17T00:45:00.231Z,22.2
2023-02-17T00:50:00.226Z,22.0
2023-02-17T00:55:00.236Z,26.6
2023-02-17T01:00:00.236Z,24.8
2023-02-17T01:05:00.322Z,22.3
2023-02-17T01:10:00.215Z,24.4
2023-02-17T01:15:00.238Z,24.0
2023-02-17T01:20:00.243Z,26.1
2023-02-17T01:25:00.244Z,25.3
2023-02-17T01:30:00.311Z,25.6
2023-02-17T01:35:00.226Z,24.7
2023-02-17T01:40:00.222Z,24.1
2023-02-17T01:45:00.231Z,0.0
2023-02-17T01:50:00.204Z,27.0
2023-02-17T01:55:00.225Z,25.9
2023-02-17T02:00:00.265Z,26.5
2023-02-17T02:05:00.228Z,25.8
2023-02-17T02:10:00.220Z,21.9
2023-02-17T02:15:00.236Z,24.9
2023-02-17T02:20:00.219Z,23.3
2023-02-17T02:25:00.239Z,23.2
2023-02-17T02:30:00.340Z,24.6
2023-02-17T02:35:00.226Z,21.8
2023-02-17T02:40:00.244Z,20.8
2023-02-17T02:45:00.232Z,26.3
2023-02-17T02:50:00.243Z,23.6
2023-02-17T02:55:00.220Z,27.1
2023-02-17T03:00:00.233Z,22.1
2023-02-17T03:05:00.282Z,22.2
2023-02-17T03:10:00.233Z,23.4
2023-02-17T03:15:00.227Z,23.2
2023-02-17T03:20:00.236Z,25.7
2023-02-17T03:25:00.241Z,24.3
2023-02-17T03:30:00.264Z,19.6
2023-02-17T03:35:00.242Z,17.7
2023-02-17T03:40:00.243Z,20.7
2023-02-17T03:45:00.233Z,16.8
2023-02-17T03:50:00.256Z,24.2
2023-02-17T03:55:00.222Z,21.1
2023-02-17T04:00:00.250Z,26.2
2023-02-17T04:05:00.227Z,26.2
2023-02-17T04:10:00.258Z,22.5
2023-02-17T04:15:00.236Z,30.4
2023-02-17T04:20:00.274Z,23.9
2023-02-17T04:25:00.224Z,28.4
2023-02-17T04:30:00.318Z,24.8
2023-02-17T04:35:00.232Z,26.0
2023-02-17T04:40:00.219Z,24.9
2023-02-17T04:45:00.220Z,29.1
2023-02-17T04:50:00.216Z,30.7
2023-02-17T04:55:00.236Z,29.4
2023-02-17T05:00:00.234Z,22.2
2023-02-17T05:05:00.345Z,25.1
2023-02-17T05:10:00.231Z,24.9
2023-02-17T05:15:00.227Z,26.5
2023-02-17T05:20:00.257Z,23.7
2023-02-17T05:25:00.224Z,27.4
2023-02-17T05:30:00.324Z,24.0
2023-02-17T05:35:00.222Z,25.4
2023-02-17T05:40:00.224Z,24.5
2023-02-17T05:45:00.231Z,26.8
2023-02-17T05:50:00.222Z,28.6
2023-02-17T05:55:00.241Z,27.7
2023-02-17T06:00:00.234Z,25.1
2023-02-17T06:05:00.294Z,26.6
2023-02-17T06:10:00.234Z,24.0
2023-02-17T06:15:00.224Z,27.0
2023-02-17T06:20:00.226Z,24.5
2023-02-17T06:25:00.230Z,26.0
2023-02-17T06:30:00.282Z,25.7
2023-02-17T06:35:00.253Z,21.6
2023-02-17T06:40:00.208Z,21.0
2023-02-17T06:45:00.227Z,22.7
2023-02-17T06:50:00.272Z,22.8
2023-02-17T06:55:00.221Z,23.2
2023-02-17T07:00:00.223Z,23.8
2023-02-17T07:05:00.227Z,26.3
2023-02-17T07:10:00.229Z,25.7
2023-02-17T07:15:00.230Z,23.4
2023-02-17T07:20:00.273Z,23.7
2023-02-17T07:25:00.213Z,25.6
2023-02-17T07:30:00.322Z,20.9
2023-02-17T07:35:00.234Z,26.3
2023-02-17T07:40:00.224Z,21.9
2023-02-17T07:45:00.247Z,21.9
2023-02-17T07:50:00.257Z,0.0
2023-02-17T07:55:00.219Z,21.7
2023-02-17T08:00:00.233Z,20.9
2023-02-17T08:05:00.207Z,19.9
2023-02-17T08:10:00.247Z,17.4
2023-02-17T08:15:00.221Z,19.8
2023-02-17T08:20:05.823Z,15.4
2023-02-17T08:25:00.251Z,17.0
2023-02-17T08:30:00.449Z,18.5
2023-02-17T08:35:00.246Z,17.5
2023-02-17T08:40:00.226Z,19.7
2023-02-17T08:45:00.220Z,19.6
2023-02-17T08:50:00.230Z,18.1
2023-02-17T08:55:00.258Z,17.2
2023-02-17T09:00:00.241Z,15.4
2023-02-17T09:05:00.260Z,15.4
2023-02-17T09:10:00.229Z,15.6
2023-02-17T09:15:00.226Z,16.6
2023-02-17T09:20:00.220Z,14.4
2023-02-17T09:25:00.236Z,15.9
2023-02-17T09:30:00.308Z,12.0
2023-02-17T09:35:00.281Z,12.0
2023-02-17T09:40:00.341Z,15.6
2023-02-17T09:45:00.303Z,12.1
2023-02-17T09:50:00.298Z,13.3
2023-02-17T09:55:00.313Z,13.1
2023-02-17T10:00:00.289Z,11.1
2023-02-17T10:05:00.332Z,11.3
2023-02-17T10:10:00.224Z,11.5
2023-02-17T10:15:00.226Z,9.5
2023-02-17T10:20:00.272Z,11.0
2023-02-17T10:25:00.212Z,9.4
2023-02-17T10:30:00.297Z,11.9
2023-02-17T10:35:00.223Z,9.6
2023-02-17T10:40:00.220Z,11.4
2023-02-17T10:45:00.315Z,10.5
2023-02-17T10:50:00.223Z,10.9
2023-02-17T10:55:00.251Z,7.7
2023-02-17T11:00:00.242Z,10.9
2023-02-17T11:05:00.228Z,9.0
2023-02-17T11:10:00.221Z,9.0
2023-02-17T11:15:00.221Z,12.1
2023-02-17T11:20:00.256Z,9.3
2023-02-17T11:25:00.248Z,11.1
2023-02-17T11:30:00.278Z,10.6
2023-02-17T11:35:00.241Z,12.4
2023-02-17T11:40:00.260Z,10.3
2023-02-17T11:45:00.245Z,12.8
2023-02-17T11:50:00.228Z,10.8
2023-02-17T11:55:00.480Z,10.8
2023-02-17T12:00:00.219Z,11.9
2023-02-17T12:05:00.292Z,11.4
2023-02-17T12:10:00.234Z,12.0
2023-02-17T12:15:00.217Z,11.0
2023-02-17T12:20:00.212Z,14.5
2023-02-17T12:25:00.228Z,13.5
2023-02-17T12:30:00.336Z,11.4
2023-02-17T12:35:00.228Z,14.6
2023-02-17T12:40:00.224Z,13.8
2023-02-17T12:45:00.218Z,12.7
2023-02-17T12:50:00.222Z,13.1
2023-02-17T12:55:00.239Z,12.3
2023-02-17T13:00:00.241Z,9.8
2023-02-17T13:05:00.221Z,14.8
2023-02-17T13:10:00.223Z,15.7
2023-02-17T13:15:00.234Z,12.6
2023-02-17T13:20:00.234Z,13.3
2023-02-17T13:25:00.243Z,10.2
2023-02-17T13:30:00.329Z,10.7
2023-02-17T13:35:00.281Z,14.5
2023-02-17T13:40:00.244Z,10.1
2023-02-17T13:45:00.219Z,11.2
2023-02-17T13:50:00.222Z,7.4
2023-02-17T13:55:00.306Z,10.2
2023-02-17T14:00:00.250Z,10.4
2023-02-17T14:05:00.342Z,10.0
2023-02-17T14:10:00.227Z,12.5
2023-02-17T14:15:00.252Z,11.6
2023-02-17T14:20:00.267Z,7.9
2023-02-17T14:25:00.219Z,12.4
2023-02-17T14:30:00.411Z,10.9
2023-02-17T14:35:00.222Z,9.3
2023-02-17T14:40:00.231Z,9.5
2023-02-17T14:45:00.259Z,10.3
2023-02-17T14:50:00.230Z,9.1
2023-02-17T14:55:00.237Z,11.8
2023-02-17T15:00:00.215Z,9.3
2023-02-17T15:05:00.292Z,10.6
2023-02-17T15:10:00.233Z,6.7
2023-02-17T15:15:00.244Z,7.3
2023-02-17T15:20:00.230Z,8.2
2023-02-17T15:25:00.214Z,7.9
2023-02-17T15:30:00.323Z,6.4
2023-02-17T15:35:00.221Z,8.5
2023-02-17T15:40:00.244Z,9.1
2023-02-17T15:45:00.232Z,8.5
2023-02-17T15:50:00.224Z,9.3
2023-02-17T15:55:00.212Z,10.7
2023-02-17T16:00:00.312Z,9.4
2023-02-17T16:05:00.237Z,11.3
2023-02-17T16:10:00.208Z,11.0
2023-02-17T16:15:00.218Z,11.7
2023-02-17T16:20:00.227Z,10.3
2023-02-17T16:25:00.236Z,8.6
2023-02-17T16:30:00.299Z,9.4
2023-02-17T16:35:00.234Z,9.5
2023-02-17T16:40:00.249Z,10.9
2023-02-17T16:45:00.233Z,10.8
2023-02-17T16:50:00.212Z,9.6
2023-02-17T16:55:00.244Z,12.4
2023-02-17T17:00:00.219Z,9.6
2023-02-17T17:05:00.236Z,14.2
2023-02-17T17:10:15.812Z,16.1
2023-02-17T17:15:00.242Z,10.8
2023-02-17T17:20:00.399Z,13.6
2023-02-17T17:25:00.252Z,13.3
2023-02-17T17:30:00.485Z,12.8
2023-02-17T17:35:00.223Z,13.9
2023-02-17T17:40:00.221Z,16.3
2023-02-17T17:45:00.254Z,17.4
2023-02-17T17:50:00.236Z,14.5
2023-02-17T17:55:00.224Z,12.8
2023-02-17T18:00:00.223Z,16.9
2023-02-17T18:05:00.280Z,19.7
2023-02-17T18:10:00.230Z,17.8
2023-02-17T18:15:00.240Z,19.2
2023-02-17T18:20:00.297Z,16.5
2023-02-17T18:25:00.233Z,18.6
2023-02-17T18:30:00.273Z,19.3
2023-02-17T18:35:00.224Z,22.0
2023-02-17T18:40:00.216Z,18.2
2023-02-17T18:45:00.211Z,21.2
2023-02-17T18:50:00.244Z,22.2
2023-02-17T18:55:00.234Z,18.6
2023-02-17T19:00:00.206Z,19.9
2023-02-17T19:05:00.244Z,22.5
2023-02-17T19:10:00.231Z,21.2
2023-02-17T19:15:00.222Z,20.3
2023-02-17T19:20:00.213Z,17.2
2023-02-17T19:25:00.200Z,26.5
2023-02-17T19:30:00.324Z,15.6
2023-02-17T19:35:00.238Z,25.2
2023-02-17T19:40:00.229Z,22.8
2023-02-17T19:45:00.215Z,18.7
2023-02-17T19:50:00.222Z,17.7
2023-02-17T19:55:00.246Z,15.3
2023-02-17T20:00:00.223Z,18.5
2023-02-17T20:05:00.218Z,18.2
2023-02-17T20:10:00.225Z,0.0
2023-02-17T20:15:00.219Z,19.6
2023-02-17T20:20:00.232Z,15.3
2023-02-17T20:25:00.220Z,16.9
2023-02-17T20:30:00.870Z,14.0
2023-02-17T20:35:00.635Z,12.3
2023-02-17T20:40:00.676Z,14.8
2023-02-17T20:45:00.552Z,17.6
2023-02-17T20:50:00.207Z,13.6
2023-02-17T20:55:00.234Z,20.3
2023-02-17T21:00:00.256Z,21.3
2023-02-17T21:05:00.222Z,16.4
2023-02-17T21:10:00.231Z,19.0
2023-02-17T21:15:00.213Z,16.2
2023-02-17T21:20:00.230Z,21.2
2023-02-17T21:25:00.227Z,18.3
2023-02-17T21:30:00.283Z,15.8
2023-02-17T21:35:00.216Z,19.8
2023-02-17T21:40:00.227Z,21.0
2023-02-17T21:45:00.227Z,19.4
2023-02-17T21:50:00.223Z,19.0
2023-02-17T21:55:00.208Z,15.3
2023-02-17T22:00:00.240Z,23.0
2023-02-17T22:05:00.229Z,19.7
2023-02-17T22:10:00.204Z,18.6
2023-02-17T22:15:00.226Z,18.7
2023-02-17T22:20:00.236Z,25.0
2023-02-17T22:25:00.217Z,17.4
2023-02-17T22:30:00.321Z,17.8
2023-02-17T22:35:00.226Z,23.0
2023-02-17T22:40:00.220Z,31.3
2023-02-17T22:45:00.243Z,25.0
2023-02-17T22:50:00.212Z,24.4
2023-02-17T22:55:00.220Z,23.0
2023-02-17T23:00:00.236Z,22.1
2023-02-17T23:05:00.229Z,27.5
2023-02-17T23:10:00.263Z,24.8
2023-02-17T23:15:00.231Z,27.2
2023-02-17T23:20:00.224Z,24.5
2023-02-17T23:25:00.229Z,25.0
2023-02-17T23:30:00.286Z,30.8
2023-02-17T23:35:00.223Z,26.8
2023-02-17T23:40:00.230Z,32.4
2023-02-17T23:45:00.220Z,33.1
2023-02-17T23:50:00.219Z,39.5
2023-02-17T23:55:00.235Z,37.9
